Time;durP1;ratioP1;P1;durP2;ratioP2;P2;SDS_P1;SDS_P2;PMS_P1;PMS_P2;Temp;Humidity;BMP_temperature;BMP_pressure;BME280_temperature;BME280_humidity;BME280_pressure;Samples;Min_cycle;Max_cycle;Signal;HPM_P1;HPM_P2
2024/02/02 00:01:05;;;;;;;;;;;;;;;3.32;100.00;102016.31;5038093;28;19925;-80
2024/02/02 00:03:33;;;;;;;;;;;;;;;3.28;100.00;102004.28;5039791;28;19924;-80
2024/02/02 00:06:06;;;;;;;;;;;;;;;3.30;100.00;101996.81;5036867;28;19924;-80
2024/02/02 00:08:35;;;;;;;;;;;;;;;3.29;100.00;101998.69;5039775;28;19929;-80
2024/02/02 00:11:08;;;;;;;;;;;;;;;3.30;100.00;101997.69;5040100;28;19925;-80
2024/02/02 00:13:36;;;;;;;;;;;;;;;3.27;100.00;102010.69;5042874;28;19928;-80
2024/02/02 00:16:09;;;;;;;;;;;;;;;3.29;100.00;102009.47;5024728;28;19948;-80
2024/02/02 00:18:37;;;;;;;;;;;;;;;3.34;100.00;102011.53;5036519;28;19924;-80
2024/02/02 00:21:05;;;;;;;;;;;;;;;3.31;100.00;102015.47;5041708;28;19920;-80
2024/02/02 00:23:40;;;;;;;;;;;;;;;3.27;100.00;102010.69;5042437;28;19932;-80
2024/02/02 00:26:13;;;;;;;;;;;;;;;3.29;100.00;102014.84;5042988;28;19921;-80
2024/02/02 00:28:41;;;;;;;;;;;;;;;3.35;100.00;102010.53;5042580;28;19925;-80
2024/02/02 00:31:09;;;;;;;;;;;;;;;3.28;100.00;102015.03;5025570;28;20408;-80
2024/02/02 00:33:42;;;;;;;;;;;;;;;3.30;100.00;102015.66;5043432;28;19921;-80
2024/02/02 00:36:10;;;;;;;;;;;;;;;3.33;100.00;102020.63;5043258;28;19924;-80
2024/02/02 00:38:38;;;;;;;;;;;;;;;3.29;100.00;102017.53;5059945;28;19933;-80
2024/02/02 00:41:12;;;;;;;;;;;;;;;3.34;100.00;102020.47;5024117;28;19921;-80
2024/02/02 00:43:40;;;;;;;;;;;;;;;3.28;100.00;102015.88;5037169;28;19925;-80
2024/02/02 00:46:08;;;;;;;;;;;;;;;3.26;100.00;102014.41;5041019;28;19924;-80
2024/02/02 00:48:38;;;;;;;;;;;;;;;3.30;100.00;102021.03;5023925;28;19932;-81
2024/02/02 00:51:11;;;;;;;;;;;;;;;3.27;100.00;102018.75;5040907;28;19924;-80
2024/02/02 00:53:44;;;;;;;;;;;;;;;3.27;100.00;102019.56;5041599;28;19924;-82
2024/02/02 00:56:18;;;;;;;;;;;;;;;3.21;100.00;102020.38;5042289;28;19928;-81
2024/02/02 00:58:51;;;;;;;;;;;;;;;3.24;100.00;102017.28;5038296;28;19925;-80
2024/02/02 01:01:24;;;;;;;;;;;;;;;3.28;100.00;102018.56;5040231;28;20496;-80
2024/02/02 01:03:57;;;;;;;;;;;;;;;3.22;100.00;102025.56;5041402;28;19936;-80
2024/02/02 01:06:25;;;;;;;;;;;;;;;3.21;100.00;102015.00;5041399;28;19931;-80
2024/02/02 01:08:58;;;;;;;;;;;;;;;3.15;100.00;102011.25;5039770;28;19932;-80
2024/02/02 01:11:28;;;;;;;;;;;;;;;3.15;100.00;102023.84;5038187;28;19920;-79
2024/02/02 01:14:01;;;;;;;;;;;;;;;3.12;100.00;102008.94;5020580;28;19935;-80
2024/02/02 01:16:29;;;;;;;;;;;;;;;3.24;100.00;102009.22;5033511;28;19924;-80
2024/02/02 01:19:02;;;;;;;;;;;;;;;3.15;100.00;102007.69;5040427;28;19932;-80
2024/02/02 01:21:31;;;;;;;;;;;;;;;3.18;100.00;102000.09;5035977;28;19924;-80
2024/02/02 01:24:04;;;;;;;;;;;;;;;3.11;100.00;101993.84;5037174;28;19925;-80
2024/02/02 01:26:33;;;;;;;;;;;;;;;3.07;100.00;101997.94;5037308;28;20634;-80
2024/02/02 01:29:08;;;;;;;;;;;;;;;3.11;100.00;101995.69;5038660;28;19928;-79
2024/02/02 01:31:41;;;;;;;;;;;;;;;3.13;100.00;101983.69;5057873;28;19925;-80
2024/02/02 01:34:09;;;;;;;;;;;;;;;3.08;100.00;101986.16;5039859;28;20264;-79
2024/02/02 01:36:42;;;;;;;;;;;;;;;3.07;100.00;101979.13;5034598;28;19931;-80
2024/02/02 01:39:16;;;;;;;;;;;;;;;3.05;100.00;101978.47;5041844;28;20305;-79
2024/02/02 01:41:46;;;;;;;;;;;;;;;3.07;100.00;101976.44;5024028;28;19925;-80
2024/02/02 01:44:14;;;;;;;;;;;;;;;3.04;100.00;101976.84;5043060;28;19932;-80
2024/02/02 01:46:47;;;;;;;;;;;;;;;3.01;100.00;101986.13;5043969;28;20008;-80
2024/02/02 01:49:20;;;;;;;;;;;;;;;3.03;100.00;101985.91;5040797;28;19931;-80
2024/02/02 01:51:53;;;;;;;;;;;;;;;3.06;100.00;101991.72;5024445;28;19925;-80
2024/02/02 01:54:21;;;;;;;;;;;;;;;3.10;100.00;101989.47;5036541;28;19935;-79
2024/02/02 01:56:51;;;;;;;;;;;;;;;3.08;100.00;101982.63;5030283;28;19932;-80
2024/02/02 01:59:19;;;;;;;;;;;;;;;3.10;100.00;101977.91;5039086;28;20376;-80
2024/02/02 02:01:47;;;;;;;;;;;;;;;3.11;100.00;101979.53;5022635;28;19921;-79
2024/02/02 02:04:20;;;;;;;;;;;;;;;3.11;100.00;101974.16;5041414;28;20388;-80
2024/02/02 02:06:53;;;;;;;;;;;;;;;3.05;100.00;101965.88;5040577;28;20755;-80
2024/02/02 02:09:21;;;;;;;;;;;;;;;3.08;100.00;101953.91;5038124;28;19925;-80
2024/02/02 02:11:51;;;;;;;;;;;;;;;3.06;100.00;101959.44;5041874;28;19928;-80
2024/02/02 02:14:19;;;;;;;;;;;;;;;3.14;100.00;101955.78;5034112;28;19928;-79
2024/02/02 02:16:50;;;;;;;;;;;;;;;3.04;100.00;101958.00;5037485;28;20381;-80
2024/02/02 02:19:23;;;;;;;;;;;;;;;3.17;100.00;101947.31;5028928;28;19932;-81
2024/02/02 02:21:57;;;;;;;;;;;;;;;3.11;100.00;101948.09;5040671;28;20400;-80
2024/02/02 02:24:30;;;;;;;;;;;;;;;3.13;100.00;101943.34;5038905;28;19928;-80
2024/02/02 02:27:04;;;;;;;;;;;;;;;3.13;100.00;101942.53;5019792;28;20285;-80
2024/02/02 02:29:32;;;;;;;;;;;;;;;3.22;100.00;101928.72;5038652;28;19925;-80
2024/02/02 02:32:06;;;;;;;;;;;;;;;3.25;100.00;101932.03;5054429;28;19932;-80
2024/02/02 02:34:34;;;;;;;;;;;;;;;3.19;100.00;101929.13;5038702;28;21569;-80
2024/02/02 02:37:08;;;;;;;;;;;;;;;3.21;100.00;101926.22;5021610;28;19928;-80
2024/02/02 02:39:41;;;;;;;;;;;;;;;3.23;100.00;101933.06;5036162;28;20293;-79
2024/02/02 02:42:14;;;;;;;;;;;;;;;3.25;100.00;101929.34;5043262;28;19931;-79
2024/02/02 02:44:47;;;;;;;;;;;;;;;3.34;100.00;101926.28;5036760;28;19925;-79
2024/02/02 02:47:15;;;;;;;;;;;;;;;3.30;100.00;101926.88;5029572;28;20396;-79
2024/02/02 02:49:48;;;;;;;;;;;;;;;3.38;100.00;101908.72;5042796;28;19928;-79
2024/02/02 02:52:23;;;;;;;;;;;;;;;3.35;100.00;101914.47;5043905;28;19928;-79
2024/02/02 02:54:51;;;;;;;;;;;;;;;3.26;100.00;101918.38;5038014;28;19921;-79
2024/02/02 02:57:19;;;;;;;;;;;;;;;3.38;100.00;101922.16;5044666;28;19940;-79
2024/02/02 02:59:50;;;;;;;;;;;;;;;3.31;100.00;101913.22;5042673;28;19939;-79
2024/02/02 03:02:23;;;;;;;;;;;;;;;3.33;100.00;101915.69;5033941;28;19925;-79
2024/02/02 03:04:51;;;;;;;;;;;;;;;3.30;100.00;101919.66;5043344;28;19931;-79
2024/02/02 03:07:19;;;;;;;;;;;;;;;3.34;100.00;101928.13;5065063;28;19932;-79
2024/02/02 03:09:53;;;;;;;;;;;;;;;3.32;100.00;101925.66;5045573;28;20453;-79
2024/02/02 03:12:23;;;;;;;;;;;;;;;3.38;100.00;101918.63;5045565;28;20392;-79
2024/02/02 03:14:51;;;;;;;;;;;;;;;3.38;100.00;101910.56;5043865;28;19928;-80
2024/02/02 03:17:24;;;;;;;;;;;;;;;3.40;100.00;101908.50;5040789;28;19924;-79
2024/02/02 03:19:53;;;;;;;;;;;;;;;3.46;100.00;101905.00;5040111;28;19928;-79
2024/02/02 03:22:21;;;;;;;;;;;;;;;3.52;100.00;101900.66;5042966;28;19932;-79
2024/02/02 03:24:56;;;;;;;;;;;;;;;3.53;100.00;101896.94;5026545;28;19936;-79
2024/02/02 03:27:24;;;;;;;;;;;;;;;3.57;100.00;101892.81;5024136;28;19921;-79
2024/02/02 03:29:52;;;;;;;;;;;;;;;3.48;100.00;101889.50;5041468;28;20292;-79
2024/02/02 03:32:25;;;;;;;;;;;;;;;3.53;100.00;101887.00;5041913;28;19924;-79
2024/02/02 03:34:58;;;;;;;;;;;;;;;3.54;100.00;101887.84;5038526;28;19924;-79
2024/02/02 03:37:27;;;;;;;;;;;;;;;3.49;100.00;101877.66;5038436;28;20305;-79
2024/02/02 03:40:04;;;;;;;;;;;;;;;3.42;100.00;101876.81;5039526;28;19944;-79
2024/02/02 03:42:32;;;;;;;;;;;;;;;3.46;100.00;101874.56;5040057;28;19931;-79
2024/02/02 03:45:06;;;;;;;;;;;;;;;3.40;100.00;101862.75;5023126;28;19952;-79
2024/02/02 03:47:39;;;;;;;;;;;;;;;3.45;100.00;101862.13;5040995;28;19921;-79
2024/02/02 03:50:07;;;;;;;;;;;;;;;3.41;100.00;101861.69;5038188;28;19933;-79
2024/02/02 03:52:40;;;;;;;;;;;;;;;3.36;100.00;101851.56;5040434;28;19929;-79
2024/02/02 03:55:14;;;;;;;;;;;;;;;3.34;100.00;101844.72;5036506;28;19943;-80
2024/02/02 03:57:56;;;;;;;;;;;;;;;3.33;100.00;101846.59;5056709;28;19929;-80
2024/02/02 04:00:27;;;;;;;;;;;;;;;3.36;100.00;101848.88;5029377;28;19921;-80
2024/02/02 04:02:55;;;;;;;;;;;;;;;3.39;100.00;101847.63;5042822;28;20297;-80
2024/02/02 04:05:26;;;;;;;;;;;;;;;3.33;100.00;101833.13;5037325;28;19929;-80
2024/02/02 04:08:25;;;;;;;;;;;;;;;3.32;100.00;101849.50;5047441;28;20473;-80
2024/02/02 04:11:11;;;;;;;;;;;;;;;3.35;100.00;101849.06;5037782;28;19924;-80
2024/02/02 04:13:56;;;;;;;;;;;;;;;3.37;100.00;101845.16;5039400;28;19931;-80
2024/02/02 04:16:24;;;;;;;;;;;;;;;3.36;100.00;101839.97;5028832;28;20404;-80
2024/02/02 04:18:57;;;;;;;;;;;;;;;3.31;100.00;101837.88;5039984;28;19935;-79
2024/02/02 04:21:25;;;;;;;;;;;;;;;3.43;100.00;101829.22;5039814;28;19936;-80
2024/02/02 04:23:59;;;;;;;;;;;;;;;3.43;100.00;101826.53;5038244;28;19936;-80
2024/02/02 04:26:31;;;;;;;;;;;;;;;3.39;100.00;101823.41;5023824;28;19924;-79
2024/02/02 04:29:06;;;;;;;;;;;;;;;3.38;100.00;101822.59;5037556;28;19920;-80
2024/02/02 04:31:34;;;;;;;;;;;;;;;3.34;100.00;101826.72;5041257;28;20340;-80
2024/02/02 04:34:07;;;;;;;;;;;;;;;3.36;100.00;101827.34;5024458;28;19921;-80
2024/02/02 04:36:35;;;;;;;;;;;;;;;3.36;100.00;101819.28;5020873;28;19925;-79
2024/02/02 04:39:04;;;;;;;;;;;;;;;3.46;100.00;101828.81;5036216;28;20581;-80
2024/02/02 04:41:32;;;;;;;;;;;;;;;3.41;100.00;101818.66;5021840;28;19927;-80
2024/02/02 04:44:05;;;;;;;;;;;;;;;3.50;100.00;101820.13;5036625;28;19929;-79
2024/02/02 04:46:35;;;;;;;;;;;;;;;3.43;100.00;101810.41;5036910;28;19924;-80
2024/02/02 04:49:04;;;;;;;;;;;;;;;3.46;100.00;101802.72;5040918;28;19924;-80
2024/02/02 04:51:32;;;;;;;;;;;;;;;3.45;100.00;101795.69;5038483;28;19928;-79
2024/02/02 04:54:05;;;;;;;;;;;;;;;3.46;100.00;101780.38;5038939;28;19932;-79
2024/02/02 04:56:33;;;;;;;;;;;;;;;3.49;100.00;101778.09;5043775;28;19928;-80
2024/02/02 04:59:01;;;;;;;;;;;;;;;3.49;100.00;101783.47;5038218;28;19924;-79
2024/02/02 05:01:29;;;;;;;;;;;;;;;3.45;100.00;101776.03;5037962;28;19931;-80
2024/02/02 05:03:58;;;;;;;;;;;;;;;3.45;100.00;101794.84;5037116;28;19931;-80
2024/02/02 05:06:31;;;;;;;;;;;;;;;3.44;100.00;101783.28;5037116;28;19928;-79
2024/02/02 05:09:05;;;;;;;;;;;;;;;3.47;100.00;101771.28;5040590;28;19921;-80
2024/02/02 05:11:38;;;;;;;;;;;;;;;3.46;100.00;101778.50;5039514;28;19928;-80
2024/02/02 05:14:06;;;;;;;;;;;;;;;3.50;100.00;101765.47;5039438;28;19932;-80
2024/02/02 05:16:34;;;;;;;;;;;;;;;3.41;100.00;101764.81;5038805;28;20419;-80
2024/02/02 05:19:04;;;;;;;;;;;;;;;3.41;100.00;101762.13;5053968;28;19924;-80
2024/02/02 05:21:37;;;;;;;;;;;;;;;3.53;100.00;101749.72;5038362;28;20392;-79
2024/02/02 05:24:05;;;;;;;;;;;;;;;3.50;100.00;101754.72;5036713;28;19931;-79
2024/02/02 05:26:37;;;;;;;;;;;;;;;3.49;100.00;101759.25;5037891;28;19925;-79
2024/02/02 05:29:10;;;;;;;;;;;;;;;3.52;100.00;101758.84;5038222;28;19925;-80
2024/02/02 05:31:39;;;;;;;;;;;;;;;3.58;100.00;101754.50;5059746;28;19925;-80
2024/02/02 05:34:13;;;;;;;;;;;;;;;3.49;100.00;101753.03;5034123;28;19929;-79
2024/02/02 05:36:46;;;;;;;;;;;;;;;3.43;100.00;101752.00;5035914;28;19932;-80
2024/02/02 05:39:14;;;;;;;;;;;;;;;3.45;100.00;101747.22;5036858;28;19925;-79
2024/02/02 05:41:47;;;;;;;;;;;;;;;3.48;100.00;101743.31;5037919;28;20400;-80
2024/02/02 05:44:20;;;;;;;;;;;;;;;3.44;100.00;101729.47;5034312;28;19948;-79
2024/02/02 05:46:48;;;;;;;;;;;;;;;3.48;100.00;101736.09;5034540;28;21488;-80
2024/02/02 05:49:23;;;;;;;;;;;;;;;3.42;100.00;101719.94;5036872;28;19947;-79
2024/02/02 05:51:56;;;;;;;;;;;;;;;3.35;100.00;101720.72;5036207;28;19928;-79
2024/02/02 05:54:29;;;;;;;;;;;;;;;3.45;100.00;101717.63;5038414;28;19924;-80
2024/02/02 05:57:02;;;;;;;;;;;;;;;3.42;100.00;101703.78;5040239;28;19932;-79
2024/02/02 05:59:30;;;;;;;;;;;;;;;3.43;100.00;101702.75;5054422;28;19920;-80
2024/02/02 06:02:03;;;;;;;;;;;;;;;3.41;100.00;101719.09;5032723;28;19928;-80
2024/02/02 06:04:33;;;;;;;;;;;;;;;3.40;100.00;101726.34;5051515;28;19931;-80
2024/02/02 06:07:06;;;;;;;;;;;;;;;3.38;100.00;101723.03;5017806;28;20602;-80
2024/02/02 06:09:34;;;;;;;;;;;;;;;3.39;100.00;101721.16;5021189;28;19948;-79
2024/02/02 06:12:02;;;;;;;;;;;;;;;3.43;100.00;101735.88;5039486;28;19925;-80
2024/02/02 06:14:35;;;;;;;;;;;;;;;3.47;100.00;101734.41;5037629;28;19951;-80
2024/02/02 06:17:10;;;;;;;;;;;;;;;3.40;100.00;101726.34;5054028;28;19932;-80
2024/02/02 06:19:44;;;;;;;;;;;;;;;3.42;100.00;101725.31;5037679;28;19924;-80
2024/02/02 06:22:21;;;;;;;;;;;;;;;3.40;100.00;101707.50;5039315;28;19925;-80
2024/02/02 06:24:54;;;;;;;;;;;;;;;3.48;100.00;101692.19;5035928;28;19925;-80
2024/02/02 06:27:22;;;;;;;;;;;;;;;3.50;100.00;101696.31;5059874;28;19924;-80
2024/02/02 06:29:55;;;;;;;;;;;;;;;3.49;100.00;101694.66;5037654;28;19932;-80
2024/02/02 06:32:28;;;;;;;;;;;;;;;3.42;100.00;101691.16;5041234;28;19927;-80
2024/02/02 06:34:58;;;;;;;;;;;;;;;3.41;100.00;101676.03;5043125;28;19928;-80
2024/02/02 06:37:31;;;;;;;;;;;;;;;3.49;100.00;101675.00;5027622;28;20757;-80
2024/02/02 06:40:03;;;;;;;;;;;;;;;3.47;100.00;101661.75;5039033;28;20682;-79
2024/02/02 06:42:32;;;;;;;;;;;;;;;3.46;100.00;101640.44;5041255;28;19924;-79
2024/02/02 06:45:05;;;;;;;;;;;;;;;3.46;100.00;101645.81;5045235;28;19924;-79
2024/02/02 06:47:38;;;;;;;;;;;;;;;3.46;100.00;101635.88;5037785;28;19921;-79
2024/02/02 06:50:13;;;;;;;;;;;;;;;3.51;100.00;101648.72;5043714;28;19932;-80
2024/02/02 06:52:41;;;;;;;;;;;;;;;3.50;100.00;101641.69;5039470;28;20377;-80
2024/02/02 06:55:09;;;;;;;;;;;;;;;3.47;100.00;101639.41;5038273;28;21627;-79
2024/02/02 06:57:42;;;;;;;;;;;;;;;3.44;100.00;101637.97;5026707;28;20374;-79
2024/02/02 07:00:12;;;;;;;;;;;;;;;3.47;100.00;101625.94;5037141;28;19936;-80
2024/02/02 07:02:40;;;;;;;;;;;;;;;3.55;100.00;101628.44;5036628;28;19931;-79
2024/02/02 07:05:08;;;;;;;;;;;;;;;3.51;100.00;101624.50;5040569;28;19925;-79
2024/02/02 07:07:42;;;;;;;;;;;;;;;3.48;100.00;101614.97;5023328;28;19927;-79
2024/02/02 07:10:13;;;;;;;;;;;;;;;3.51;100.00;101622.63;5027745;28;20312;-79
2024/02/02 07:12:53;;;;;;;;;;;;;;;3.60;100.00;101631.28;5043516;28;19929;-79
2024/02/02 07:15:27;;;;;;;;;;;;;;;3.59;100.00;101621.59;5036963;28;19929;-79
2024/02/02 07:17:55;;;;;;;;;;;;;;;3.54;100.00;101619.50;5039198;28;19921;-79
2024/02/02 07:20:55;;;;;;;;;;;;;;;3.62;100.00;101596.94;5056508;28;19925;-79
2024/02/02 07:23:32;;;;;;;;;;;;;;;3.65;100.00;101591.13;5038427;28;19925;-79
2024/02/02 07:26:00;;;;;;;;;;;;;;;3.65;100.00;101593.81;5037017;28;19936;-79
2024/02/02 07:28:31;;;;;;;;;;;;;;;3.62;100.00;101582.63;5021839;28;19924;-78
2024/02/02 07:30:59;;;;;;;;;;;;;;;3.67;100.00;101597.09;5042615;28;19932;-80
2024/02/02 07:33:36;;;;;;;;;;;;;;;3.64;100.00;101592.16;5040012;28;19921;-80
2024/02/02 07:36:10;;;;;;;;;;;;;;;3.65;100.00;101593.81;5039577;28;19925;-83
2024/02/02 07:38:49;;;;;;;;;;;;;;;3.71;100.00;101573.28;5024715;28;19925;-82
2024/02/02 07:41:25;;;;;;;;;;;;;;;3.70;100.00;101577.03;5037313;28;19925;-80
2024/02/02 07:43:54;;;;;;;;;;;;;;;3.70;100.00;101583.25;5036083;28;19921;-80
2024/02/02 07:46:27;;;;;;;;;;;;;;;3.70;100.00;101590.47;5034437;28;19929;-80
2024/02/02 07:49:03;;;;;;;;;;;;;;;3.73;100.00;101587.38;5023041;28;19924;-80
2024/02/02 07:51:37;;;;;;;;;;;;;;;3.78;100.00;101584.88;5037825;28;19943;-80
2024/02/02 07:54:12;;;;;;;;;;;;;;;3.78;100.00;101584.03;5042640;28;19932;-80
2024/02/02 07:56:45;;;;;;;;;;;;;;;3.81;100.00;101592.53;5036404;28;19932;-80
2024/02/02 07:59:13;;;;;;;;;;;;;;;3.84;100.00;101596.66;4997547;28;19936;-81
2024/02/02 08:01:47;;;;;;;;;;;;;;;3.86;100.00;101606.16;5006327;28;19947;-81
2024/02/02 08:04:20;;;;;;;;;;;;;;;3.82;100.00;101594.16;4995579;28;19928;-80
2024/02/02 08:06:53;;;;;;;;;;;;;;;3.85;100.00;101592.94;5002158;28;19936;-81
2024/02/02 08:09:23;;;;;;;;;;;;;;;3.89;100.00;101584.22;4999789;28;21585;-80
2024/02/02 08:11:51;;;;;;;;;;;;;;;3.90;100.00;101577.78;5023311;28;20678;-79
2024/02/02 08:14:21;;;;;;;;;;;;;;;4.02;100.00;101593.25;5022056;28;21431;-81
2024/02/02 08:16:50;;;;;;;;;;;;;;;3.97;100.00;101593.09;5005562;28;19936;-81
2024/02/02 08:19:17;;;;;;;;;;;;;;;3.97;100.00;101585.03;5016032;28;19936;-81
2024/02/02 08:21:46;;;;;;;;;;;;;;;4.03;100.00;101574.22;5034805;28;19929;-81
2024/02/02 08:24:18;;;;;;;;;;;;;;;3.97;100.00;101580.44;5019218;28;19928;-83
2024/02/02 08:26:48;;;;;;;;;;;;;;;4.04;100.00;101565.09;5012759;28;19935;-81
2024/02/02 08:29:16;;;;;;;;;;;;;;;3.97;100.00;101558.09;5036868;28;19940;-81
2024/02/02 08:31:49;;;;;;;;;;;;;;;3.99;100.00;101553.31;5018774;28;20301;-81
2024/02/02 08:34:17;;;;;;;;;;;;;;;4.04;100.00;101561.56;5026827;28;19928;-82
2024/02/02 08:36:50;;;;;;;;;;;;;;;4.02;100.00;101550.16;5027868;28;19936;-82
2024/02/02 08:39:24;;;;;;;;;;;;;;;4.05;100.00;101555.16;5005627;28;19921;-80
2024/02/02 08:41:58;;;;;;;;;;;;;;;4.05;100.00;101555.97;5011288;28;19936;-80
2024/02/02 08:44:30;;;;;;;;;;;;;;;4.01;100.00;101545.84;5028595;28;19929;-80
2024/02/02 08:46:58;;;;;;;;;;;;;;;3.92;100.00;101547.94;5000422;28;20624;-80
2024/02/02 08:49:45;;;;;;;;;;;;;;;3.95;100.00;101550.22;5009414;28;19936;-80
2024/02/02 08:52:21;;;;;;;;;;;;;;;3.92;100.00;101538.00;5025099;28;19940;-80
2024/02/02 08:54:54;;;;;;;;;;;;;;;3.81;100.00;101532.47;5020393;28;20563;-81
2024/02/02 08:57:31;;;;;;;;;;;;;;;3.78;100.00;101531.00;5005205;28;19936;-81
2024/02/02 09:00:15;;;;;;;;;;;;;;;3.85;100.00;101525.59;5021530;28;19928;-80
2024/02/02 09:02:53;;;;;;;;;;;;;;;3.84;100.00;101532.03;5018820;28;19936;-81
2024/02/02 09:05:27;;;;;;;;;;;;;;;3.81;100.00;101519.00;5021646;28;20393;-80
2024/02/02 09:08:09;;;;;;;;;;;;;;;3.76;100.00;101514.25;5027976;28;20867;-80
2024/02/02 09:10:56;;;;;;;;;;;;;;;3.83;100.00;101511.53;5019843;28;21975;-80
2024/02/02 09:13:26;;;;;;;;;;;;;;;3.86;100.00;101511.91;5023447;28;19935;-80
2024/02/02 09:15:59;;;;;;;;;;;;;;;3.78;100.00;101504.09;5022784;28;20316;-80
2024/02/02 09:18:33;;;;;;;;;;;;;;;3.80;100.00;101496.63;5019357;28;19954;-81
2024/02/02 09:21:02;;;;;;;;;;;;;;;3.81;100.00;101494.75;5036363;28;20378;-81
2024/02/02 09:23:31;;;;;;;;;;;;;;;3.82;100.00;101491.03;5006811;28;19936;-81
2024/02/02 09:26:00;;;;;;;;;;;;;;;3.84;100.00;101489.78;5026023;28;19925;-82
2024/02/02 09:28:40;;;;;;;;;;;;;;;3.84;100.00;101488.94;5017833;28;19928;-81
2024/02/02 09:31:20;;;;;;;;;;;;;;;3.85;100.00;101487.91;5029203;28;19931;-81
2024/02/02 09:33:54;;;;;;;;;;;;;;;3.83;100.00;101480.06;5011371;28;19929;-82
2024/02/02 09:36:27;;;;;;;;;;;;;;;3.81;100.00;101482.16;5022013;28;21355;-80
2024/02/02 09:38:57;;;;;;;;;;;;;;;3.76;100.00;101471.19;5012607;28;19929;-81
2024/02/02 09:41:42;;;;;;;;;;;;;;;3.83;100.00;101471.16;5039584;28;19928;-81
2024/02/02 09:44:18;;;;;;;;;;;;;;;3.82;100.00;101472.19;5025862;28;19932;-82
2024/02/02 09:46:58;;;;;;;;;;;;;;;3.81;100.00;101457.91;5022233;28;20321;-81
2024/02/02 09:49:40;;;;;;;;;;;;;;;3.75;100.00;101459.56;5041933;28;19929;-82
2024/02/02 09:52:15;;;;;;;;;;;;;;;3.81;100.00;101459.75;5014749;28;19928;-82
2024/02/02 09:54:50;;;;;;;;;;;;;;;3.84;100.00;101454.78;5029666;28;19935;-82
2024/02/02 09:57:21;;;;;;;;;;;;;;;3.81;100.00;101460.59;5028437;28;19928;-81
2024/02/02 10:00:02;;;;;;;;;;;;;;;3.81;100.00;101452.53;5035220;28;19939;-81
2024/02/02 10:03:01;;;;;;;;;;;;;;;3.88;100.00;101450.63;5022450;28;19936;-82
2024/02/02 10:05:35;;;;;;;;;;;;;;;3.92;100.00;101448.28;4985829;28;20521;-84
2024/02/02 10:08:10;;;;;;;;;;;;;;;3.92;100.00;101451.84;5009279;28;19936;-83
2024/02/02 10:10:54;;;;;;;;;;;;;;;3.86;100.00;101462.63;5037859;28;20692;-84
2024/02/02 10:13:36;;;;;;;;;;;;;;;3.90;100.00;101453.09;5023363;28;19921;-79
2024/02/02 10:16:18;;;;;;;;;;;;;;;3.88;100.00;101464.09;5005885;28;19928;-80
2024/02/02 10:19:03;;;;;;;;;;;;;;;3.91;100.00;101457.44;5012940;28;19935;-81
2024/02/02 10:21:39;;;;;;;;;;;;;;;3.89;100.00;101464.91;5009304;28;19929;-80
2024/02/02 10:24:29;;;;;;;;;;;;;;;3.95;100.00;101450.59;5023420;28;20325;-81
2024/02/02 10:27:15;;;;;;;;;;;;;;;3.92;100.00;101445.59;5021068;28;19928;-80
2024/02/02 10:29:48;;;;;;;;;;;;;;;3.96;100.00;101446.00;5031699;28;19929;-80
2024/02/02 10:32:26;;;;;;;;;;;;;;;3.97;100.00;101436.91;5021467;28;19928;-80
2024/02/02 10:35:06;;;;;;;;;;;;;;;3.95;100.00;101429.03;5018110;28;20015;-81
2024/02/02 10:37:35;;;;;;;;;;;;;;;3.95;100.00;101426.34;5019626;28;19936;-81
2024/02/02 10:40:11;;;;;;;;;;;;;;;3.87;100.00;101421.22;5014723;28;19947;-81
2024/02/02 10:42:45;;;;;;;;;;;;;;;3.96;100.00;101419.06;5006044;28;19936;-82
2024/02/02 10:45:16;;;;;;;;;;;;;;;3.95;100.00;101409.34;5037421;28;19929;-81
2024/02/02 10:48:00;;;;;;;;;;;;;;;4.00;100.00;101406.81;5024313;28;19929;-82
2024/02/02 10:50:34;;;;;;;;;;;;;;;3.96;100.00;101408.31;5024953;28;19936;-81
2024/02/02 10:53:08;;;;;;;;;;;;;;;4.01;100.00;101398.53;5024381;28;19929;-80
2024/02/02 10:55:44;;;;;;;;;;;;;;;4.04;100.00;101386.50;5023154;28;21477;-81
2024/02/02 10:58:22;;;;;;;;;;;;;;;4.06;100.00;101382.53;4994155;28;19929;-81
2024/02/02 11:01:04;;;;;;;;;;;;;;;4.14;100.00;101384.13;5006898;28;19928;-82
2024/02/02 11:03:36;;;;;;;;;;;;;;;4.11;100.00;101386.44;5009613;28;19929;-82
2024/02/02 11:06:12;;;;;;;;;;;;;;;4.13;100.00;101373.56;5032833;28;19928;-82
2024/02/02 11:08:44;;;;;;;;;;;;;;;4.15;100.00;101379.59;5024143;28;19929;-81
2024/02/02 11:11:13;;;;;;;;;;;;;;;4.21;100.00;101374.16;5014941;28;19928;-81
2024/02/02 11:13:45;;;;;;;;;;;;;;;4.22;100.00;101383.03;5018483;28;19936;-81
2024/02/02 11:16:26;;;;;;;;;;;;;;;4.15;100.00;101380.38;5035449;28;19939;-81
2024/02/02 11:19:09;;;;;;;;;;;;;;;4.10;100.00;101364.06;5021770;28;19939;-81
2024/02/02 11:21:43;;;;;;;;;;;;;;;4.14;100.00;101376.03;5032933;28;19928;-81
2024/02/02 11:24:16;;;;;;;;;;;;;;;4.17;100.00;101372.94;5029320;28;19928;-81
2024/02/02 11:26:48;;;;;;;;;;;;;;;4.16;100.00;101367.78;5006890;28;20008;-83
2024/02/02 11:29:21;;;;;;;;;;;;;;;4.23;100.00;101374.72;5021935;28;20388;-81
2024/02/02 11:31:59;;;;;;;;;;;;;;;4.28;100.00;101375.94;5001720;28;20040;-81
2024/02/02 11:34:35;;;;;;;;;;;;;;;4.32;100.00;101377.97;5023605;28;21608;-80
2024/02/02 11:37:13;;;;;;;;;;;;;;;4.33;100.00;101371.53;5043998;28;19928;-81
2024/02/02 11:39:56;;;;;;;;;;;;;;;4.41;100.00;101365.88;5021970;28;20662;-81
2024/02/02 11:42:26;;;;;;;;;;;;;;;4.43;100.00;101360.25;5021137;28;19936;-81
2024/02/02 11:44:55;;;;;;;;;;;;;;;4.54;100.00;101353.31;5021675;28;19929;-81
2024/02/02 11:47:23;;;;;;;;;;;;;;;4.51;100.00;101351.06;5021549;28;19929;-81
2024/02/02 11:50:01;;;;;;;;;;;;;;;4.48;100.00;101335.34;5006082;28;19936;-81
2024/02/02 11:52:37;;;;;;;;;;;;;;;4.48;100.00;101329.94;5031249;28;19928;-81
2024/02/02 11:55:14;;;;;;;;;;;;;;;4.52;100.00;101329.28;5025666;28;19939;-81
2024/02/02 11:57:44;;;;;;;;;;;;;;;4.60;100.00;101325.47;5023520;28;20016;-81
2024/02/02 12:00:24;;;;;;;;;;;;;;;4.63;100.00;101324.19;5020730;28;19929;-81
2024/02/02 12:03:01;;;;;;;;;;;;;;;4.66;100.00;101319.16;5011648;28;19925;-81
2024/02/02 12:05:35;;;;;;;;;;;;;;;4.58;100.00;101304.13;5026865;28;19925;-80
2024/02/02 12:08:05;;;;;;;;;;;;;;;4.66;100.00;101307.56;5026105;28;20559;-80
2024/02/02 12:10:35;;;;;;;;;;;;;;;4.67;100.00;101298.41;5012700;28;20831;-81
2024/02/02 12:13:03;;;;;;;;;;;;;;;4.66;100.00;101312.97;5015380;28;19935;-80
2024/02/02 12:15:36;;;;;;;;;;;;;;;4.67;100.00;101301.94;5029633;28;19936;-80
2024/02/02 12:18:09;;;;;;;;;;;;;;;4.68;100.00;101291.97;5013808;28;20715;-80
2024/02/02 12:20:39;;;;;;;;;;;;;;;4.65;100.00;101293.25;5010300;28;19940;-80
2024/02/02 12:23:13;;;;;;;;;;;;;;;4.63;100.00;101289.97;4997432;28;19930;-80
2024/02/02 12:25:46;;;;;;;;;;;;;;;4.65;100.00;101287.03;5015815;28;19931;-80
2024/02/02 12:28:19;;;;;;;;;;;;;;;4.68;100.00;101273.09;5013950;28;20377;-80
2024/02/02 12:30:47;;;;;;;;;;;;;;;4.70;100.00;101265.63;5017595;28;19929;-80
2024/02/02 12:33:20;;;;;;;;;;;;;;;4.69;100.00;101283.66;5016710;28;19951;-80
2024/02/02 12:35:55;;;;;;;;;;;;;;;4.70;100.00;101266.44;5015227;28;19938;-80
2024/02/02 12:38:23;;;;;;;;;;;;;;;4.72;100.00;101268.91;5028476;28;20579;-80
2024/02/02 12:40:51;;;;;;;;;;;;;;;4.77;100.00;101263.66;5018352;28;19936;-80
2024/02/02 12:43:25;;;;;;;;;;;;;;;4.82;100.00;101262.97;5017966;28;19929;-80
2024/02/02 12:45:58;;;;;;;;;;;;;;;4.73;100.00;101265.97;5019164;28;19928;-80
2024/02/02 12:48:31;;;;;;;;;;;;;;;4.75;100.00;101265.75;5004451;28;21316;-80
2024/02/02 12:51:01;;;;;;;;;;;;;;;4.75;100.00;101261.19;5017537;28;19928;-80
2024/02/02 12:53:29;;;;;;;;;;;;;;;4.72;100.00;101258.13;5042063;28;19939;-79
2024/02/02 12:55:58;;;;;;;;;;;;;;;4.78;100.00;101254.53;4998895;28;19929;-80
2024/02/02 12:58:27;;;;;;;;;;;;;;;4.80;100.00;101243.53;4978365;28;19929;-79
2024/02/02 13:00:55;;;;;;;;;;;;;;;4.77;100.00;101253.69;5016504;28;20820;-80
2024/02/02 13:03:23;;;;;;;;;;;;;;;4.81;100.00;101251.38;5016981;28;21460;-79